Time;durP1;ratioP1;P1;durP2;ratioP2;P2;SDS_P1;SDS_P2;PMS_P1;PMS_P2;Temp;Humidity;BMP_temperature;BMP_pressure;BME280_temperature;BME280_humidity;BME280_pressure;Samples;Min_cycle;Max_cycle;Signal;HPM_P1;HPM_P2
2022/08/14 00:00:58;;;;;;;6.40;5.80;;;;;;;19.94;66.49;97786.41;4155499;28;20636;-79
2022/08/14 00:03:01;;;;;;;6.80;6.20;;;;;;;19.90;66.96;97787.75;4174253;28;20719;-79
2022/08/14 00:05:08;;;;;;;6.93;6.23;;;;;;;19.88;67.76;97787.09;4166994;28;21056;-79
2022/08/14 00:07:13;;;;;;;7.10;6.40;;;;;;;19.84;66.51;97782.28;4169770;28;21184;-79
2022/08/14 00:09:16;;;;;;;7.10;6.40;;;;;;;19.80;67.92;97780.13;4154647;28;20723;-79
2022/08/14 00:11:22;;;;;;;6.30;5.80;;;;;;;19.77;67.09;97778.69;4156876;28;21250;-79
2022/08/14 00:13:27;;;;;;;6.80;6.03;;;;;;;19.74;66.91;97779.00;4168467;28;20679;-79
2022/08/14 00:15:35;;;;;;;6.83;6.23;;;;;;;19.71;66.51;97766.13;4166663;28;21078;-79
2022/08/14 00:17:46;;;;;;;6.80;6.20;;;;;;;19.67;67.34;97767.44;4156230;28;20644;-79
2022/08/14 00:19:55;;;;;;;7.30;6.60;;;;;;;19.63;67.77;97771.41;4170797;28;21277;-79
2022/08/14 00:22:00;;;;;;;6.70;6.10;;;;;;;19.60;67.86;97771.72;4169180;28;21359;-79
2022/08/14 00:24:03;;;;;;;7.20;6.60;;;;;;;19.58;67.20;97757.84;4202780;28;20766;-78
2022/08/14 00:26:06;;;;;;;6.90;6.20;;;;;;;19.59;67.88;97759.50;4173864;28;21251;-79
2022/08/14 00:28:26;;;;;;;7.27;6.57;;;;;;;19.55;67.73;97760.84;4171689;28;20665;-79
2022/08/14 00:30:34;;;;;;;7.10;6.50;;;;;;;19.51;68.63;97748.91;4173339;28;20629;-79
2022/08/14 00:32:44;;;;;;;7.23;6.63;;;;;;;19.49;67.69;97742.97;4202692;28;20632;-79
2022/08/14 00:35:00;;;;;;;6.90;6.30;;;;;;;19.43;68.40;97740.19;4168595;28;20625;-79
2022/08/14 00:37:05;;;;;;;7.40;6.70;;;;;;;19.39;68.49;97731.78;4173250;28;21382;-79
2022/08/14 00:39:12;;;;;;;7.17;6.57;;;;;;;19.37;68.20;97729.47;4170881;28;20636;-79
2022/08/14 00:41:16;;;;;;;6.97;6.30;;;;;;;19.32;68.10;97726.47;4184613;28;20674;-79
2022/08/14 00:43:19;;;;;;;8.10;6.00;;;;;;;19.29;69.05;97729.44;4154006;28;20638;-79
2022/08/14 00:45:23;;;;;;;6.70;6.10;;;;;;;19.28;68.49;97723.34;4169338;28;20675;-79
2022/08/14 00:47:26;;;;;;;7.67;6.67;;;;;;;19.27;68.58;97720.88;4172849;28;20618;-79
2022/08/14 00:49:31;;;;;;;7.10;6.40;;;;;;;19.25;68.78;97722.84;4170420;28;20745;-79
2022/08/14 00:51:45;;;;;;;7.17;6.57;;;;;;;19.21;68.29;97711.75;4162876;28;20687;-79
2022/08/14 00:53:52;;;;;;;7.00;6.40;;;;;;;19.19;69.44;97715.59;4163559;28;20688;-79
2022/08/14 00:55:56;;;;;;;7.83;6.50;;;;;;;19.15;69.40;97708.97;4168263;28;20698;-79
2022/08/14 01:00:29;;;;;;;7.10;6.50;;;;;;;19.08;69.29;97706.19;4166990;28;20642;-79
2022/08/14 01:02:45;;;;;;;7.60;6.50;;;;;;;19.05;69.86;97692.47;4170886;28;20671;-79
2022/08/14 01:04:59;;;;;;;6.83;6.23;;;;;;;19.00;69.64;97702.66;4170691;28;20663;-79
2022/08/14 01:07:06;;;;;;;7.47;6.70;;;;;;;18.94;70.05;97700.69;4146566;28;20660;-79
2022/08/14 01:09:13;;;;;;;6.97;6.37;;;;;;;18.87;70.19;97702.34;4152167;28;20630;-79
2022/08/14 01:11:17;;;;;;;7.10;6.50;;;;;;;18.86;70.05;97705.16;4167969;28;20739;-79
2022/08/14 01:13:23;;;;;;;7.00;6.40;;;;;;;18.83;69.81;97703.66;4170055;28;20684;-79
2022/08/14 01:15:45;;;;;;;6.63;6.03;;;;;;;18.83;70.00;97705.50;4154056;28;20797;-78
2022/08/14 01:22:48;;;;;;;7.40;6.70;;;;;;;18.82;69.52;97698.53;4168787;28;20643;-79
2022/08/14 01:24:52;;;;;;;7.33;6.73;;;;;;;18.83;68.78;97698.38;4172748;28;21004;-79
2022/08/14 01:26:56;;;;;;;7.37;6.67;;;;;;;18.84;69.80;97700.03;4184447;28;20630;-78
2022/08/14 01:29:04;;;;;;;6.73;6.13;;;;;;;18.83;69.94;97700.19;4169012;28;20703;-79
2022/08/14 01:31:11;;;;;;;6.70;6.10;;;;;;;18.83;70.02;97697.56;4169199;28;20644;-79
2022/08/14 01:33:16;;;;;;;7.03;6.43;;;;;;;18.79;70.21;97704.16;4170210;28;20628;-78
2022/08/14 01:35:21;;;;;;;7.20;6.50;;;;;;;18.73;70.38;97713.56;4169680;28;20645;-79
2022/08/14 01:37:45;;;;;;;6.40;5.90;;;;;;;18.72;69.97;97701.34;4169313;28;20672;-78
2022/08/14 01:40:01;;;;;;;7.20;6.60;;;;;;;18.72;70.13;97701.34;4173203;28;20630;-79
2022/08/14 01:42:06;;;;;;;7.20;6.60;;;;;;;18.69;70.12;97704.31;4167358;28;20699;-79
2022/08/14 01:44:14;;;;;;;7.10;6.50;;;;;;;18.63;70.40;97704.16;4172956;28;20689;-79
2022/08/14 01:46:38;;;;;;;7.10;6.50;;;;;;;18.56;70.66;97696.03;4173361;28;21313;-79
2022/08/14 01:48:43;;;;;;;7.00;6.40;;;;;;;18.54;70.71;97695.38;4168072;28;20628;-79
2022/08/14 01:50:46;;;;;;;7.43;6.83;;;;;;;18.50;71.08;97694.03;4186798;28;20632;-78
2022/08/14 01:52:52;;;;;;;7.57;6.70;;;;;;;18.48;70.95;97693.41;4162609;28;20643;-79
2022/08/14 01:55:05;;;;;;;7.67;6.83;;;;;;;18.46;70.89;97686.59;4167539;28;20685;-79
2022/08/14 01:57:10;;;;;;;7.20;6.50;;;;;;;18.43;70.89;97686.94;4156311;28;21082;-79
2022/08/14 01:59:20;;;;;;;7.53;6.83;;;;;;;18.43;71.11;97684.28;4200903;28;20627;-79
2022/08/14 02:01:24;;;;;;;7.40;6.70;;;;;;;18.42;71.07;97683.47;4155638;28;20682;-79
2022/08/14 02:03:33;;;;;;;7.40;6.70;;;;;;;18.44;70.82;97685.97;4167500;28;20646;-79
2022/08/14 02:05:37;;;;;;;7.30;6.70;;;;;;;18.44;71.31;97688.59;4174754;28;20664;-79
2022/08/14 02:07:42;;;;;;;7.37;6.67;;;;;;;18.42;71.30;97683.47;4167434;28;20657;-79
2022/08/14 02:09:58;;;;;;;7.97;7.17;;;;;;;18.40;71.70;97683.81;4171534;28;20644;-78
2022/08/14 02:12:05;;;;;;;7.57;6.87;;;;;;;18.39;71.08;97675.06;4188366;28;20645;-78
2022/08/14 02:14:12;;;;;;;6.73;6.20;;;;;;;18.36;71.43;97663.97;4169472;28;21223;-77
2022/08/14 02:16:18;;;;;;;8.30;7.50;;;;;;;18.36;71.35;97667.47;4169332;28;20733;-77
2022/08/14 02:18:26;;;;;;;7.87;7.27;;;;;;;18.34;71.40;97658.84;4169315;28;20644;-77
2022/08/14 02:20:34;;;;;;;7.70;7.00;;;;;;;18.34;70.65;97652.75;4147983;28;21038;-77
2022/08/14 02:22:38;;;;;;;8.20;7.20;;;;;;;18.31;71.51;97647.81;4165458;28;20670;-78
2022/08/14 02:24:51;;;;;;;7.83;7.17;;;;;;;18.26;71.67;97642.19;4167937;28;21216;-77
2022/08/14 02:26:55;;;;;;;7.70;7.10;;;;;;;18.22;72.12;97640.84;4174878;28;20767;-77
2022/08/14 02:29:23;;;;;;;7.37;6.67;;;;;;;18.22;71.66;97646.13;4154886;28;21213;-77
2022/08/14 02:31:49;;;;;;;7.13;6.20;;;;;;;18.22;71.25;97648.78;4168004;28;20640;-78
2022/08/14 02:33:53;;;;;;;8.60;6.50;;;;;;;18.22;71.11;97648.78;4152039;28;20673;-77
2022/08/14 02:35:57;;;;;;;7.23;6.63;;;;;;;18.21;71.76;97655.06;4173495;28;20638;-79
2022/08/14 02:38:21;;;;;;;7.60;6.87;;;;;;;18.18;72.14;97650.09;4158569;28;20684;-79
2022/08/14 02:40:36;;;;;;;7.70;7.00;;;;;;;18.13;71.65;97661.16;4157555;28;20674;-80
2022/08/14 02:42:40;;;;;;;7.80;7.20;;;;;;;18.08;72.85;97659.94;4170424;28;20743;-79
2022/08/14 02:44:59;;;;;;;7.00;6.40;;;;;;;18.03;72.71;97662.25;4161720;28;20641;-79
2022/08/14 02:47:04;;;;;;;7.07;6.47;;;;;;;17.98;71.84;97651.31;4164480;28;20668;-79
2022/08/14 02:49:20;;;;;;;7.93;7.27;;;;;;;17.96;72.21;97643.56;4167112;28;20661;-79
2022/08/14 02:51:28;;;;;;;7.30;6.70;;;;;;;17.93;72.24;97640.44;4185693;28;20625;-80
2022/08/14 02:53:33;;;;;;;8.83;6.90;;;;;;;17.93;72.72;97643.06;4169719;28;20723;-80
2022/08/14 02:55:40;;;;;;;7.43;6.83;;;;;;;17.90;73.60;97643.38;4154836;28;21121;-79
2022/08/14 02:57:43;;;;;;;8.43;7.73;;;;;;;17.88;73.25;97645.38;4183023;28;20677;-80
2022/08/14 02:59:56;;;;;;;7.80;7.10;;;;;;;17.87;73.84;97633.16;4171137;28;20638;-79
2022/08/14 03:02:01;;;;;;;8.00;7.23;;;;;;;17.85;72.87;97631.69;4170334;28;20634;-79
2022/08/14 03:04:08;;;;;;;8.10;7.40;;;;;;;17.83;72.71;97623.06;4170038;28;20626;-79
2022/08/14 03:06:13;;;;;;;8.40;7.67;;;;;;;17.80;72.99;97629.53;4169941;28;20664;-79
2022/08/14 03:08:38;;;;;;;9.57;7.20;;;;;;;17.76;72.83;97622.09;4155648;28;20663;-79
2022/08/14 03:10:48;;;;;;;8.00;7.27;;;;;;;17.73;74.04;97617.94;4173610;28;20745;-79
2022/08/14 03:12:52;;;;;;;7.87;7.17;;;;;;;17.65;73.03;97620.56;4158033;28;20682;-79
2022/08/14 03:14:55;;;;;;;8.33;7.53;;;;;;;17.54;74.41;97609.47;4155028;28;20629;-79
2022/08/14 03:16:58;;;;;;;7.57;6.97;;;;;;;17.44;74.40;97605.28;4173812;28;21028;-79
2022/08/14 03:19:05;;;;;;;10.50;7.80;;;;;;;17.40;73.41;97610.06;4174360;28;20647;-79
2022/08/14 03:21:12;;;;;;;7.87;7.17;;;;;;;17.42;74.12;97617.81;4171601;28;20638;-79
2022/08/14 03:23:15;;;;;;;8.57;7.80;;;;;;;17.43;73.28;97616.84;4169417;28;20651;-79
2022/08/14 03:25:20;;;;;;;9.00;7.67;;;;;;;17.46;74.02;97608.63;4167082;28;20623;-79
2022/08/14 03:27:25;;;;;;;8.77;8.00;;;;;;;17.47;73.52;97614.56;4169208;28;20750;-79
2022/08/14 03:29:49;;;;;;;9.10;7.93;;;;;;;17.49;75.05;97609.13;4172577;28;20695;-79
2022/08/14 03:31:52;;;;;;;8.60;7.83;;;;;;;17.47;73.51;97611.91;4168433;28;20713;-79
2022/08/14 03:33:55;;;;;;;9.73;8.30;;;;;;;17.43;75.16;97611.56;4164361;28;20696;-79
2022/08/14 03:36:07;;;;;;;8.57;7.77;;;;;;;17.33;73.38;97602.94;4166731;28;20625;-79
2022/08/14 03:38:30;;;;;;;8.07;7.37;;;;;;;17.24;73.98;97606.53;4172139;28;20633;-79
2022/08/14 03:40:53;;;;;;;8.33;7.53;;;;;;;17.19;75.95;97596.41;4169146;28;20645;-79
2022/08/14 03:42:57;;;;;;;8.83;8.03;;;;;;;17.16;75.43;97596.72;4170786;28;21982;-79
2022/08/14 03:45:01;;;;;;;9.17;8.30;;;;;;;17.14;76.04;97592.63;4166924;28;20621;-79
2022/08/14 03:47:25;;;;;;;9.30;8.40;;;;;;;17.15;76.24;97599.53;4157268;28;20673;-79
2022/08/14 03:49:48;;;;;;;8.27;7.57;;;;;;;17.16;74.75;97590.66;4204078;28;20693;-78
2022/08/14 03:51:53;;;;;;;8.53;7.77;;;;;;;17.15;75.29;97583.72;4152513;28;20638;-78
2022/08/14 03:53:58;;;;;;;9.07;8.23;;;;;;;17.16;75.43;97585.38;4170969;28;20626;-78
2022/08/14 03:56:01;;;;;;;8.70;7.90;;;;;;;17.17;76.76;97589.63;4171621;28;20633;-78
2022/08/14 03:58:05;;;;;;;9.40;8.50;;;;;;;17.16;74.56;97588.81;4183372;28;20649;-78
2022/08/14 04:00:12;;;;;;;8.70;7.80;;;;;;;17.17;74.69;97587.00;4154427;28;20636;-78
2022/08/14 04:02:35;;;;;;;8.80;8.00;;;;;;;17.13;76.36;97586.50;4183924;28;20645;-78
2022/08/14 04:04:48;;;;;;;8.70;7.90;;;;;;;17.12;76.01;97586.66;4169187;28;20626;-78
2022/08/14 04:06:53;;;;;;;9.50;8.53;;;;;;;17.09;76.71;97584.34;4155452;28;20789;-78
2022/08/14 04:09:00;;;;;;;8.33;7.63;;;;;;;17.07;75.98;97581.84;4169228;28;20660;-78
2022/08/14 04:11:04;;;;;;;10.70;9.60;;;;;;;17.04;76.68;97586.63;4165745;28;21169;-78
2022/08/14 04:13:15;;;;;;;10.77;9.63;;;;;;;17.02;75.30;97585.97;4173904;28;20632;-78
2022/08/14 04:15:20;;;;;;;13.93;12.47;;;;;;;17.01;76.83;97581.66;4166657;28;20672;-78
2022/08/14 04:17:28;;;;;;;9.53;8.63;;;;;;;16.99;76.08;97579.19;4156905;28;21075;-78
2022/08/14 04:19:32;;;;;;;8.97;7.80;;;;;;;16.98;77.32;97574.06;4191293;28;20647;-78
2022/08/14 04:21:38;;;;;;;9.33;8.53;;;;;;;17.00;75.33;97585.28;4170982;28;20634;-78
2022/08/14 04:24:04;;;;;;;10.70;8.70;;;;;;;16.97;75.41;97568.97;4166654;28;20629;-77
2022/08/14 04:26:11;;;;;;;8.20;7.50;;;;;;;16.97;76.29;97577.69;4176304;28;21055;-78
2022/08/14 04:28:17;;;;;;;11.37;7.90;;;;;;;16.98;75.08;97577.53;4174870;28;20996;-78
2022/08/14 04:30:40;;;;;;;10.90;8.23;;;;;;;16.99;76.09;97581.00;4175133;28;20682;-78
2022/08/14 04:32:44;;;;;;;9.40;8.50;;;;;;;16.97;76.01;97572.41;4171318;28;20679;-78
2022/08/14 04:35:07;;;;;;;9.50;8.60;;;;;;;16.98;77.28;97589.88;4174034;28;20641;-78
2022/08/14 04:44:20;;;;;;;9.30;8.40;;;;;;;16.95;76.00;97576.19;4170485;28;20637;-78
2022/08/14 04:46:39;;;;;;;9.00;8.20;;;;;;;16.94;77.61;97572.72;4176450;28;21296;-78
2022/08/14 04:48:58;;;;;;;8.60;7.80;;;;;;;16.90;77.18;97566.13;4169647;28;20685;-78
2022/08/14 04:51:04;;;;;;;8.40;7.70;;;;;;;16.90;76.46;97571.41;4184604;28;21195;-78
2022/08/14 04:53:09;;;;;;;9.57;7.80;;;;;;;16.91;76.24;97572.22;4168848;28;20636;-78
2022/08/14 04:55:14;;;;;;;10.13;8.40;;;;;;;16.91;75.98;97577.50;4160286;28;20649;-78
2022/08/14 04:57:17;;;;;;;9.40;8.50;;;;;;;16.92;77.39;97579.16;4170483;28;20688;-78
2022/08/14 04:59:22;;;;;;;8.83;8.13;;;;;;;16.93;76.72;97580.78;4172675;28;20649;-78
2022/08/14 05:01:26;;;;;;;8.00;7.30;;;;;;;16.98;76.68;97581.97;4173414;28;20654;-78
2022/08/14 05:03:32;;;;;;;9.20;8.40;;;;;;;17.05;77.98;97578.56;4174109;28;21220;-78
2022/08/14 05:05:35;;;;;;;11.20;8.70;;;;;;;17.13;77.18;97588.31;4183344;28;20632;-79
2022/08/14 05:07:39;;;;;;;8.77;7.97;;;;;;;17.21;76.30;97583.13;4186735;28;20737;-80
2022/08/14 05:09:56;;;;;;;10.00;8.97;;;;;;;17.33;77.19;97587.13;4173966;28;20750;-81
2022/08/14 05:12:01;;;;;;;10.30;7.77;;;;;;;17.41;78.21;97584.50;4172877;28;20637;-80
2022/08/14 05:14:25;;;;;;;9.23;8.43;;;;;;;17.50;77.00;97579.13;4174226;28;20636;-79
2022/08/14 05:16:48;;;;;;;9.87;8.87;;;;;;;17.59;77.24;97584.28;4177736;28;20656;-80
2022/08/14 05:18:51;;;;;;;9.53;8.67;;;;;;;17.68;78.16;97590.38;4173109;28;20740;-80
2022/08/14 05:21:15;;;;;;;9.10;8.30;;;;;;;17.78;77.94;97591.91;4158305;28;21230;-80
2022/08/14 05:23:39;;;;;;;9.30;8.40;;;;;;;17.89;75.99;97582.84;4167426;28;20650;-80
2022/08/14 05:25:46;;;;;;;10.00;9.17;;;;;;;18.00;75.18;97580.75;4171548;28;20647;-81
2022/08/14 05:27:52;;;;;;;10.67;8.40;;;;;;;18.20;74.40;97592.69;4176199;28;21236;-80
2022/08/14 05:29:56;;;;;;;8.77;8.00;;;;;;;18.41;73.63;97587.75;4166198;28;20733;-80
2022/08/14 05:32:05;;;;;;;9.87;8.63;;;;;;;18.65;72.82;97594.66;4174276;28;20635;-80
2022/08/14 05:34:09;;;;;;;9.37;8.47;;;;;;;18.89;71.75;97592.00;4168346;28;20629;-80
2022/08/14 05:36:14;;;;;;;9.27;8.47;;;;;;;19.14;71.34;97594.44;4170669;28;20687;-83
2022/08/14 05:38:20;;;;;;;9.60;8.80;;;;;;;19.34;70.58;97597.53;4173020;28;20634;-82
2022/08/14 05:40:34;;;;;;;9.07;8.27;;;;;;;19.58;70.37;97593.78;4174218;28;20670;-81
2022/08/14 05:42:37;;;;;;;9.50;8.70;;;;;;;19.83;69.20;97597.13;4173223;28;20614;-81
2022/08/14 05:44:42;;;;;;;9.50;8.60;;;;;;;20.08;70.23;97602.16;4158297;28;21102;-82
2022/08/14 05:46:48;;;;;;;9.20;8.40;;;;;;;20.34;68.97;97612.25;4173719;28;21520;-84
2022/08/14 05:48:53;;;;;;;8.60;7.90;;;;;;;20.58;66.91;97612.06;4173629;28;20647;-83
2022/08/14 05:50:56;;;;;;;9.33;8.30;;;;;;;20.83;66.93;97621.47;4207849;28;20716;-81
2022/08/14 05:53:00;;;;;;;10.00;9.10;;;;;;;21.08;66.70;97621.09;4171408;28;21234;-83
2022/08/14 05:55:04;;;;;;;9.63;8.63;;;;;;;21.30;65.22;97615.72;4174658;28;20664;-84
2022/08/14 05:57:07;;;;;;;9.20;8.43;;;;;;;21.46;66.14;97618.19;4173153;28;20629;-83
2022/08/14 05:59:12;;;;;;;9.90;9.10;;;;;;;21.55;65.85;97613.63;4169878;28;20712;-83
2022/08/14 06:01:20;;;;;;;9.33;8.53;;;;;;;21.72;66.61;97609.78;4172493;28;20661;-82
2022/08/14 06:03:25;;;;;;;12.80;8.37;;;;;;;21.94;64.79;97599.84;4170848;28;20637;-84
2022/08/14 06:05:29;;;;;;;9.20;8.40;;;;;;;22.11;64.62;97603.09;4152040;28;21068;-83
2022/08/14 06:07:35;;;;;;;10.17;8.47;;;;;;;22.28;63.69;97602.69;4167805;28;20658;-83
2022/08/14 06:09:38;;;;;;;9.30;8.40;;;;;;;22.42;63.94;97602.66;4158027;28;20623;-81
2022/08/14 06:11:42;;;;;;;8.83;7.93;;;;;;;22.70;64.23;97603.50;4175342;28;20625;-84
2022/08/14 06:13:51;;;;;;;9.10;8.30;;;;;;;22.93;62.69;97596.16;4159755;28;21253;-84
2022/08/14 06:15:56;;;;;;;9.20;8.40;;;;;;;23.09;62.95;97595.88;4157146;28;20634;-82
2022/08/14 06:18:01;;;;;;;10.00;9.13;;;;;;;23.22;62.08;97596.81;4172120;28;20712;-82
2022/08/14 06:20:05;;;;;;;9.17;8.37;;;;;;;23.36;61.57;97595.84;4171653;28;20634;-81
2022/08/14 06:22:12;;;;;;;8.60;7.90;;;;;;;23.57;61.26;97609.09;4171725;28;20634;-82
2022/08/14 06:24:19;;;;;;;8.03;7.40;;;;;;;23.78;62.08;97601.84;4168627;28;21069;-82
2022/08/14 06:26:22;;;;;;;8.37;7.63;;;;;;;23.99;61.53;97604.41;4186093;28;20645;-82
2022/08/14 06:28:32;;;;;;;7.90;7.10;;;;;;;24.18;61.05;97593.81;4170989;28;20650;-80
2022/08/14 06:30:36;;;;;;;8.00;7.30;;;;;;;24.35;60.34;97592.44;4146780;28;21276;-82
2022/08/14 06:32:49;;;;;;;8.70;7.90;;;;;;;24.58;60.86;97600.91;4174919;28;20645;-84
2022/08/14 06:34:56;;;;;;;8.33;7.63;;;;;;;24.72;59.86;97588.19;4176642;28;20642;-84
2022/08/14 06:37:17;;;;;;;11.30;7.40;;;;;;;24.93;58.13;97598.66;4175918;28;20630;-82
2022/08/14 06:39:21;;;;;;;8.80;8.00;;;;;;;25.08;58.90;97588.63;4172907;28;21195;-80
2022/08/14 06:41:40;;;;;;;7.93;7.33;;;;;;;25.39;58.08;97581.59;4185383;28;20644;-81
2022/08/14 06:44:01;;;;;;;8.00;7.30;;;;;;;25.66;58.04;97581.34;4168995;28;20637;-83
2022/08/14 06:46:05;;;;;;;8.60;7.40;;;;;;;25.93;59.02;97580.19;4154520;28;20634;-84
2022/08/14 06:48:22;;;;;;;8.13;7.47;;;;;;;26.21;57.41;97570.81;4179731;28;20630;-83
2022/08/14 06:50:27;;;;;;;7.93;7.13;;;;;;;26.40;56.45;97561.91;4171758;28;20654;-84
2022/08/14 06:52:32;;;;;;;7.53;6.83;;;;;;;26.52;55.66;97556.66;4153262;28;20683;-81
2022/08/14 06:54:35;;;;;;;7.70;7.00;;;;;;;26.49;55.79;97549.91;4171019;28;20643;-83
2022/08/14 06:56:39;;;;;;;6.83;6.30;;;;;;;26.64;55.80;97555.72;4172651;28;20664;-81
2022/08/14 06:58:46;;;;;;;7.33;6.73;;;;;;;26.88;55.40;97557.59;4169493;28;21037;-79
2022/08/14 07:05:48;;;;;;;6.70;6.10;;;;;;;27.14;54.55;97524.22;4172234;28;20663;-80
2022/08/14 07:07:59;;;;;;;6.60;6.10;;;;;;;27.23;55.39;97525.56;4169975;28;20668;-83
2022/08/14 07:10:03;;;;;;;6.57;6.07;;;;;;;27.22;55.19;97525.78;4177032;28;21044;-80
2022/08/14 07:12:07;;;;;;;7.47;6.80;;;;;;;27.22;55.89;97528.47;4171741;28;20636;-81
2022/08/14 07:14:30;;;;;;;7.77;7.10;;;;;;;27.30;55.16;97525.50;4155836;28;20693;-81
2022/08/14 07:16:34;;;;;;;7.13;6.53;;;;;;;27.47;55.79;97539.94;4193123;28;20628;-79
2022/08/14 07:18:37;;;;;;;6.80;6.20;;;;;;;27.65;55.13;97532.78;4151508;28;20990;-79
2022/08/14 07:20:44;;;;;;;6.60;6.10;;;;;;;27.87;55.31;97531.25;4171919;28;21005;-80
2022/08/14 07:22:47;;;;;;;6.67;5.97;;;;;;;27.94;54.13;97522.06;4169557;28;20675;-80
2022/08/14 07:24:59;;;;;;;8.13;6.37;;;;;;;27.96;55.43;97519.97;4174748;28;20628;-80
2022/08/14 07:27:02;;;;;;;6.67;6.07;;;;;;;27.97;54.64;97518.13;4173471;28;20644;-80
2022/08/14 07:29:05;;;;;;;7.23;6.60;;;;;;;27.94;54.79;97514.03;4169442;28;20640;-78
2022/08/14 07:31:10;;;;;;;6.70;6.20;;;;;;;28.02;53.81;97509.16;4168513;28;21261;-80
2022/08/14 07:33:13;;;;;;;7.10;6.40;;;;;;;28.20;54.34;97506.44;4177821;28;20636;-81
2022/08/14 07:35:16;;;;;;;6.97;6.37;;;;;;;28.30;53.87;97517.44;4177440;28;21301;-80
2022/08/14 07:37:21;;;;;;;7.37;6.77;;;;;;;28.39;54.06;97518.75;4172118;28;21082;-79
2022/08/14 07:39:24;;;;;;;6.73;6.20;;;;;;;28.49;53.31;97527.06;4175527;28;20706;-80
2022/08/14 07:41:29;;;;;;;6.37;5.87;;;;;;;28.66;53.97;97528.06;4191752;28;20638;-79
2022/08/14 07:43:36;;;;;;;6.20;5.70;;;;;;;28.80;52.73;97529.50;4188931;28;20679;-79
2022/08/14 07:45:41;;;;;;;6.00;5.20;;;;;;;28.97;52.38;97528.56;4200825;28;20629;-79
2022/08/14 07:47:44;;;;;;;5.80;5.30;;;;;;;29.14;51.52;97519.59;4178348;28;20606;-78
2022/08/14 07:49:54;;;;;;;6.17;5.67;;;;;;;29.31;51.64;97528.59;4172454;28;20740;-78
2022/08/14 07:51:58;;;;;;;6.17;5.67;;;;;;;29.53;51.17;97526.94;4161196;28;20636;-78
2022/08/14 07:54:04;;;;;;;6.43;5.80;;;;;;;29.64;50.88;97529.59;4177995;28;20743;-79
2022/08/14 07:56:13;;;;;;;5.90;5.30;;;;;;;29.79;50.46;97527.25;4172724;28;20640;-79
2022/08/14 07:58:37;;;;;;;6.30;5.70;;;;;;;29.94;50.80;97532.94;4172161;28;20636;-79
2022/08/14 08:00:54;;;;;;;6.10;5.50;;;;;;;30.07;49.74;97528.09;4172057;28;20645;-79
2022/08/14 08:02:59;;;;;;;6.10;5.60;;;;;;;30.24;50.15;97526.28;4169417;28;20637;-79
2022/08/14 08:05:02;;;;;;;6.03;5.53;;;;;;;30.38;49.72;97521.44;4171789;28;20647;-79
2022/08/14 08:07:06;;;;;;;6.10;5.60;;;;;;;30.47;49.72;97520.81;4171835;28;20641;-80
2022/08/14 08:09:12;;;;;;;5.70;5.20;;;;;;;30.58;49.86;97517.22;4171418;28;21042;-81
2022/08/14 08:11:18;;;;;;;5.97;5.47;;;;;;;30.77;49.53;97526.72;4169505;28;20637;-81
2022/08/14 08:13:22;;;;;;;6.37;5.73;;;;;;;30.92;49.49;97523.22;4159054;28;20686;-80
2022/08/14 08:15:28;;;;;;;7.90;6.53;;;;;;;31.07;48.22;97528.84;4171265;28;20626;-82
2022/08/14 08:17:32;;;;;;;13.30;5.73;;;;;;;31.14;47.45;97529.50;4168486;28;20638;-81
2022/08/14 08:19:40;;;;;;;5.33;4.83;;;;;;;31.25;48.27;97535.88;4186694;28;20779;-80
2022/08/14 08:21:46;;;;;;;7.20;5.10;;;;;;;31.40;47.58;97528.84;4172125;28;20678;-80
2022/08/14 08:23:49;;;;;;;5.80;4.60;;;;;;;31.54;47.23;97535.50;4156561;28;20641;-80
2022/08/14 08:25:57;;;;;;;5.20;4.70;;;;;;;31.68;47.86;97532.22;4172997;28;20688;-80
2022/08/14 08:28:02;;;;;;;5.43;4.47;;;;;;;31.90;47.68;97528.44;4175842;28;20980;-80
2022/08/14 08:30:11;;;;;;;5.23;4.73;;;;;;;32.10;47.67;97530.56;4157051;28;20661;-81
2022/08/14 08:32:14;;;;;;;4.80;4.40;;;;;;;32.21;46.71;97525.03;4172889;28;20633;-81
2022/08/14 08:34:18;;;;;;;5.37;4.97;;;;;;;32.26;46.18;97525.09;4158692;28;20650;-79
2022/08/14 08:36:26;;;;;;;5.40;4.90;;;;;;;32.33;45.35;97519.50;4165595;28;20685;-79
2022/08/14 08:38:32;;;;;;;5.27;4.87;;;;;;;32.48;47.68;97517.78;4186711;28;20665;-78
2022/08/14 08:40:58;;;;;;;5.00;4.57;;;;;;;32.66;45.76;97517.44;4173702;28;20679;-78
2022/08/14 08:43:02;;;;;;;4.70;4.30;;;;;;;32.69;45.57;97511.50;4167979;28;20774;-78
2022/08/14 08:45:07;;;;;;;4.87;4.47;;;;;;;32.71;45.06;97506.66;4166489;28;21945;-78
2022/08/14 08:47:14;;;;;;;5.70;4.60;;;;;;;32.84;45.62;97507.03;4174863;28;21311;-78
2022/08/14 08:49:18;;;;;;;5.40;4.33;;;;;;;32.99;44.77;97513.41;4169983;28;20640;-78
2022/08/14 08:51:24;;;;;;;4.50;4.10;;;;;;;33.15;45.08;97504.31;4173939;28;21307;-78
2022/08/14 08:53:36;;;;;;;4.90;4.50;;;;;;;33.27;44.61;97499.50;4176691;28;21082;-78
2022/08/14 08:55:45;;;;;;;4.50;4.10;;;;;;;33.31;43.63;97497.94;4155163;28;20641;-78
2022/08/14 08:57:54;;;;;;;4.50;4.10;;;;;;;33.52;43.84;97505.13;4177825;28;21223;-78
2022/08/14 08:59:57;;;;;;;5.13;4.73;;;;;;;33.64;43.80;97503.81;4174737;28;20646;-78
2022/08/14 09:02:04;;;;;;;4.77;4.37;;;;;;;33.70;43.13;97499.25;4176767;28;20644;-78
2022/08/14 09:04:07;;;;;;;4.90;4.50;;;;;;;33.65;42.73;97497.34;4171079;28;20710;-78
2022/08/14 09:06:16;;;;;;;5.00;4.60;;;;;;;33.70;41.83;97486.53;4174867;28;20645;-78
2022/08/14 09:08:45;;;;;;;4.70;4.30;;;;;;;33.47;42.70;97491.56;4173453;28;20691;-78
2022/08/14 09:10:48;;;;;;;5.30;4.90;;;;;;;33.32;41.43;97475.22;4171847;28;20698;-78
2022/08/14 09:12:59;;;;;;;4.80;4.40;;;;;;;33.30;42.45;97474.66;4172798;28;20628;-79
2022/08/14 09:15:05;;;;;;;5.07;4.50;;;;;;;33.21;42.48;97470.00;4172445;28;21262;-78
2022/08/14 09:17:14;;;;;;;6.97;4.57;;;;;;;33.22;42.39;97475.16;4168704;28;21238;-79
2022/08/14 09:19:17;;;;;;;5.00;4.60;;;;;;;33.17;42.17;97469.72;4170990;28;21270;-79
2022/08/14 09:21:23;;;;;;;4.93;4.53;;;;;;;33.31;41.60;97464.66;4165789;28;24725;-79
2022/08/14 09:23:33;;;;;;;5.30;4.90;;;;;;;33.38;42.71;97455.22;4170111;28;20709;-77
2022/08/14 09:25:56;;;;;;;4.60;4.20;;;;;;;33.42;41.79;97450.91;4202405;28;20620;-81
2022/08/14 09:28:05;;;;;;;5.30;4.80;;;;;;;33.36;42.43;97447.38;4159116;28;20638;-77
2022/08/14 09:30:10;;;;;;;5.30;4.80;;;;;;;33.41;41.96;97450.09;4174756;28;21243;-77
2022/08/14 09:32:40;;;;;;;5.10;4.70;;;;;;;33.27;42.24;97450.81;4171462;28;20644;-77
2022/08/14 09:35:06;;;;;;;5.27;4.53;;;;;;;33.19;41.83;97447.81;4174456;28;20775;-76
2022/08/14 09:37:21;;;;;;;5.60;5.03;;;;;;;33.17;42.06;97452.66;4173436;28;20647;-78
2022/08/14 09:39:37;;;;;;;5.43;5.03;;;;;;;33.13;42.08;97438.84;4175292;28;20636;-77
2022/08/14 09:41:53;;;;;;;5.70;5.20;;;;;;;33.16;42.46;97443.72;4176546;28;20638;-78
2022/08/14 09:44:29;;;;;;;5.87;5.37;;;;;;;33.14;41.95;97454.00;4172328;28;20643;-76
2022/08/14 09:46:33;;;;;;;5.83;5.23;;;;;;;33.16;42.46;97438.31;4171810;28;21038;-76
2022/08/14 09:48:37;;;;;;;5.10;4.70;;;;;;;33.16;42.47;97440.22;4170539;28;20638;-77
2022/08/14 09:50:46;;;;;;;5.40;5.00;;;;;;;33.18;42.98;97446.97;4169970;28;20656;-79
2022/08/14 09:52:51;;;;;;;5.13;4.73;;;;;;;33.14;43.00;97437.78;4165918;28;20625;-78
2022/08/14 09:54:58;;;;;;;5.93;5.33;;;;;;;33.07;41.98;97441.78;4169679;28;21312;-80
2022/08/14 09:57:05;;;;;;;5.93;4.83;;;;;;;33.06;42.57;97435.56;4169395;28;20691;-80
2022/08/14 09:59:13;;;;;;;5.40;4.90;;;;;;;33.02;43.00;97442.56;4153362;28;20668;-80
2022/08/14 10:01:20;;;;;;;5.40;5.00;;;;;;;33.06;43.05;97446.38;4167091;28;20621;-80
2022/08/14 10:03:32;;;;;;;5.83;5.33;;;;;;;32.79;43.05;97452.91;4177527;28;20621;-81
2022/08/14 10:05:37;;;;;;;5.70;5.20;;;;;;;32.96;43.87;97440.09;4173218;28;20620;-80
2022/08/14 10:07:49;;;;;;;5.83;5.33;;;;;;;32.96;42.82;97450.91;4175161;28;20750;-82
2022/08/14 10:10:01;;;;;;;5.50;5.00;;;;;;;33.03;43.61;97441.50;4171619;28;20728;-80
2022/08/14 10:12:24;;;;;;;5.53;5.03;;;;;;;33.26;42.36;97449.22;4189044;28;21108;-80
2022/08/14 10:14:34;;;;;;;5.97;5.47;;;;;;;33.17;43.04;97431.84;4172341;28;21062;-81
2022/08/14 10:16:44;;;;;;;5.47;5.07;;;;;;;33.06;42.07;97424.75;4171641;28;20631;-81
2022/08/14 10:18:49;;;;;;;5.63;5.13;;;;;;;33.10;42.60;97427.75;4168361;28;20664;-81
2022/08/14 10:20:56;;;;;;;5.23;4.83;;;;;;;33.02;42.25;97420.94;4170639;28;20686;-81
2022/08/14 10:23:09;;;;;;;5.63;5.13;;;;;;;32.89;42.28;97407.81;4202052;28;20638;-80